Time;durP1;ratioP1;P1;durP2;ratioP2;P2;SDS_P1;SDS_P2;PMS_P1;PMS_P2;Temp;Humidity;BMP_temperature;BMP_pressure;BME280_temperature;BME280_humidity;BME280_pressure;Samples;Min_cycle;Max_cycle;Signal;HPM_P1;HPM_P2
2022/04/06 00:01:21;;;;;;;22.02;6.90;;;;;;;;;;6105230;23;20013;-85
2022/04/06 00:03:47;;;;;;;18.88;6.45;;;;;;;;;;6105951;23;20025;-86
2022/04/06 00:06:13;;;;;;;16.83;6.35;;;;;;;;;;6105076;23;20036;-85
2022/04/06 00:08:39;;;;;;;17.80;6.97;;;;;;;;;;6129817;23;20029;-87
2022/04/06 00:11:05;;;;;;;21.02;7.55;;;;;;;;;;6106478;23;20045;-84
2022/04/06 00:13:31;;;;;;;19.00;6.78;;;;;;;;;;6130821;23;20068;-85
2022/04/06 00:15:57;;;;;;;14.70;6.95;;;;;;;;;;6106196;23;20021;-86
2022/04/06 00:18:23;;;;;;;25.48;8.10;;;;;;;;;;6129340;23;20013;-87
2022/04/06 00:20:50;;;;;;;20.30;8.00;;;;;;;;;;6131129;23;20481;-85
2022/04/06 00:23:16;;;;;;;22.70;7.80;;;;;;;;;;6106215;23;20021;-87
2022/04/06 00:25:42;;;;;;;16.95;8.25;;;;;;;;;;6106065;23;20355;-88
2022/04/06 00:28:08;;;;;;;16.48;7.95;;;;;;;;;;6131147;23;20028;-89
2022/04/06 00:30:34;;;;;;;22.70;7.40;;;;;;;;;;6157292;23;20017;-88
2022/04/06 00:33:01;;;;;;;17.70;8.40;;;;;;;;;;6106450;23;20092;-87
2022/04/06 00:35:30;;;;;;;25.98;9.32;;;;;;;;;;6131236;23;20075;-90
2022/04/06 00:38:00;;;;;;;22.58;8.38;;;;;;;;;;6157526;23;20141;-88
2022/04/06 00:40:26;;;;;;;21.13;8.48;;;;;;;;;;6105817;23;20080;-91
2022/04/06 00:42:55;;;;;;;22.20;8.82;;;;;;;;;;6131262;23;20022;-90
2022/04/06 00:45:25;;;;;;;17.00;7.60;;;;;;;;;;6130896;23;20096;-88
2022/04/06 00:47:52;;;;;;;20.15;9.05;;;;;;;;;;6157084;23;20024;-87
2022/04/06 00:50:18;;;;;;;22.25;8.95;;;;;;;;;;6157233;23;20039;-86
2022/04/06 00:52:45;;;;;;;30.20;11.00;;;;;;;;;;6156558;23;20019;-89
2022/04/06 00:55:12;;;;;;;18.38;8.45;;;;;;;;;;6106762;23;20408;-88
2022/04/06 00:57:39;;;;;;;17.67;7.70;;;;;;;;;;6158456;23;20014;-88
2022/04/06 01:00:06;;;;;;;30.23;9.45;;;;;;;;;;6107237;23;20088;-88
2022/04/06 01:02:32;;;;;;;25.38;8.32;;;;;;;;;;6106303;23;20498;-85
2022/04/06 01:04:58;;;;;;;21.35;8.57;;;;;;;;;;6156360;23;20021;-85
2022/04/06 01:07:24;;;;;;;20.30;8.82;;;;;;;;;;6129871;23;20473;-86
2022/04/06 01:09:51;;;;;;;26.38;8.18;;;;;;;;;;6104784;23;20073;-85
2022/04/06 01:12:17;;;;;;;25.55;7.32;;;;;;;;;;6156190;23;20024;-86
2022/04/06 01:14:43;;;;;;;14.13;7.88;;;;;;;;;;6130373;23;20025;-86
2022/04/06 01:17:09;;;;;;;23.25;7.50;;;;;;;;;;6105990;23;20025;-85
2022/04/06 01:19:37;;;;;;;21.48;8.00;;;;;;;;;;6130296;23;20017;-88
2022/04/06 01:22:11;;;;;;;14.88;6.60;;;8.90;99.90;;;;;;6129852;23;20017;-85
2022/04/06 01:24:38;;;;;;;22.58;6.53;;;;;;;;;;6105206;23;20443;-87
2022/04/06 01:27:04;;;;;;;14.13;6.43;;;;;;;;;;6129891;23;20013;-85
2022/04/06 01:29:30;;;;;;;19.30;6.18;;;;;;;;;;6130553;23;20068;-88
2022/04/06 01:31:56;;;;;;;17.40;6.63;;;;;;;;;;6105431;23;20044;-87
2022/04/06 01:34:22;;;;;;;9.75;5.57;;;;;;;;;;6106272;23;20032;-88
2022/04/06 01:36:48;;;;;;;14.55;6.22;;;;;;;;;;6106015;23;20018;-87
2022/04/06 01:39:14;;;;;;;19.52;6.68;;;;;;;;;;6106066;23;20036;-86
2022/04/06 01:41:41;;;;;;;11.30;5.35;;;;;;;;;;6156619;23;20045;-87
2022/04/06 01:44:07;;;;;;;9.93;6.30;;;;;;;;;;6155449;23;20018;-87
2022/04/06 01:46:33;;;;;;;13.88;5.00;;;;;;;;;;6130329;23;20021;-87
2022/04/06 01:54:29;;;;;;;15.27;5.22;;;;;;;;;;6125406;23;20093;-86
2022/04/06 01:56:55;;;;;;;10.00;4.47;;;;;;;;;;6127011;23;20416;-86
2022/04/06 01:59:21;;;;;;;13.48;4.20;;;;;;;;;;6102045;23;20014;-86
2022/04/06 02:01:50;;;;;;;13.95;4.65;;;;;;;;;;6101942;23;20122;-86
2022/04/06 02:04:16;;;;;;;17.02;4.68;;;;;;;;;;6126038;23;20028;-86
2022/04/06 02:06:42;;;;;;;12.75;4.50;;;;;;;;;;6125568;23;20387;-86
2022/04/06 02:09:09;;;;;;;12.95;4.45;;;;;;;;;;6125461;23;20025;-87
2022/04/06 02:11:42;;;;;;;12.75;4.82;;;9.00;99.90;;;;;;6102144;23;20018;-85
2022/04/06 02:14:08;;;;;;;9.02;4.25;;;;;;;;;;6126065;23;20022;-87
2022/04/06 02:16:35;;;;;;;13.90;4.07;;;;;;;;;;6102122;23;20010;-87
2022/04/06 02:19:01;;;;;;;11.50;4.40;;;;;;;;;;6126902;23;20029;-86
2022/04/06 02:21:27;;;;;;;15.27;5.40;;;;;;;;;;6126682;23;20010;-87
2022/04/06 02:23:53;;;;;;;10.75;4.18;;;;;;;;;;6125393;23;20053;-87
2022/04/06 02:26:19;;;;;;;5.80;3.58;;;;;;;;;;6127225;23;20073;-87
2022/04/06 02:28:45;;;;;;;10.48;3.85;;;;;;;;;;6125434;23;20022;-87
2022/04/06 02:31:11;;;;;;;15.80;4.18;;;;;;;;;;6101683;23;20025;-87
2022/04/06 02:33:37;;;;;;;12.25;3.72;;;;;;;;;;6101610;23;20014;-87
2022/04/06 02:36:04;;;;;;;11.15;3.13;;;;;;;;;;6125817;23;20343;-87
2022/04/06 02:38:30;;;;;;;8.90;3.30;;;;;;;;;;6102027;23;20025;-86
2022/04/06 02:40:56;;;;;;;18.10;3.90;;;;;;;;;;6101588;23;20041;-85
2022/04/06 02:43:22;;;;;;;12.85;3.92;;;;;;;;;;6100968;23;20022;-86
2022/04/06 02:45:49;;;;;;;9.15;3.90;;;;;;;;;;6102105;23;20478;-86
2022/04/06 02:48:18;;;;;;;6.72;3.33;;;;;;;;;;6125953;23;20018;-86
2022/04/06 02:50:44;;;;;;;6.82;2.63;;;;;;;;;;6126208;23;20022;-87
2022/04/06 02:53:10;;;;;;;5.85;2.47;;;;;;;;;;6101083;23;20061;-87
2022/04/06 02:55:36;;;;;;;7.82;2.47;;;;;;;;;;6101429;23;20026;-87
2022/04/06 02:58:02;;;;;;;9.23;2.83;;;;;;;;;;6126265;23;20092;-86
2022/04/06 03:00:32;;;;;;;4.28;2.63;;;;;;;;;;6127939;23;20038;-86
2022/04/06 03:02:58;;;;;;;4.65;2.10;;;;;;;;;;6127620;23;20014;-85
2022/04/06 03:05:27;;;;;;;10.60;2.75;;;;;;;;;;6125417;23;20025;-85
2022/04/06 03:07:53;;;;;;;12.30;2.60;;;;;;;;;;6125256;23;20018;-86
2022/04/06 03:10:19;;;;;;;9.60;2.75;;;;;;;;;;6102067;23;20028;-85
2022/04/06 03:12:46;;;;;;;8.20;2.42;;;;;;;;;;6125405;23;20049;-86
2022/04/06 03:15:12;;;;;;;9.63;2.78;;;;;;;;;;6101237;23;20455;-89
2022/04/06 03:17:39;;;;;;;10.38;2.47;;;;;;;;;;6102274;23;20025;-91
2022/04/06 03:20:06;;;;;;;10.88;2.15;;;8.80;99.90;;;;;;6103789;23;20017;-91
2022/04/06 03:22:33;;;;;;;6.60;2.92;;;;;;;;;;6103063;23;20021;-85
2022/04/06 03:24:59;;;;;;;6.00;3.15;;;;;;;;;;6127109;23;20018;-89
2022/04/06 03:27:25;;;;;;;4.13;2.67;;;;;;;;;;6102537;23;20014;-91
2022/04/06 03:29:51;;;;;;;5.07;2.45;;;;;;;;;;6102205;23;20521;-89
2022/04/06 03:32:17;;;;;;;10.70;3.72;;;;;;;;;;6128316;23;20479;-90
2022/04/06 03:34:43;;;;;;;3.83;2.90;;;;;;;;;;6128979;23;20022;-88
2022/04/06 03:37:09;;;;;;;10.18;3.25;;;;;;;;;;6103762;23;20045;-89
2022/04/06 03:39:35;;;;;;;17.33;3.72;;;;;;;;;;6103843;23;20481;-92
2022/04/06 03:42:01;;;;;;;6.07;3.58;;;;;;;;;;6128196;23;20060;-91
2022/04/06 03:44:27;;;;;;;8.02;3.08;;;;;;;;;;6103222;23;20485;-89
2022/04/06 03:46:55;;;;;;;11.18;3.92;;;;;;;;;;6126071;23;20014;-90
2022/04/06 03:49:21;;;;;;;12.85;4.03;;;;;;;;;;6101787;23;20053;-89
2022/04/06 03:51:47;;;;;;;12.23;3.90;;;;;;;;;;6125809;23;20052;-87
2022/04/06 03:54:13;;;;;;;9.35;4.53;;;;;;;;;;6100611;23;20514;-89
2022/04/06 03:56:39;;;;;;;9.27;4.53;;;;;;;;;;6101591;23;20105;-87
2022/04/06 03:59:06;;;;;;;6.45;4.40;;;;;;;;;;6101642;23;20022;-88
2022/04/06 04:01:35;;;;;;;8.88;3.97;;;;;;;;;;6100862;23;20106;-85
2022/04/06 04:04:01;;;;;;;14.02;5.07;;;;;;;;;;6101608;23;20097;-88
2022/04/06 04:06:27;;;;;;;14.35;4.82;;;;;;;;;;6101173;23;20022;-88
2022/04/06 04:08:53;;;;;;;9.60;4.32;;;;;;;;;;6100477;23;20017;-88
2022/04/06 04:11:19;;;;;;;10.48;5.00;;;;;;;;;;6101121;23;20057;-89
2022/04/06 04:13:45;;;;;;;13.68;4.95;;;;;;;;;;6126052;23;20354;-88
2022/04/06 04:16:12;;;;;;;8.32;4.90;;;;;;;;;;6101574;23;20029;-88
2022/04/06 04:18:38;;;;;;;10.10;4.93;;;;;;;;;;6125554;23;20022;-89
2022/04/06 04:23:48;;;;;;;8.10;3.75;;;;;;;;;;6126453;23;20403;-86
2022/04/06 04:26:15;;;;;;;8.00;4.05;;;;;;;;;;6101700;23;20037;-85
2022/04/06 04:28:41;;;;;;;14.27;4.90;;;;;;;;;;6125090;23;20022;-85
2022/04/06 04:31:07;;;;;;;14.70;5.70;;;;;;;;;;6100554;23;20014;-88
2022/04/06 04:33:33;;;;;;;9.15;4.82;;;;;;;;;;6100441;23;20018;-87
2022/04/06 04:35:59;;;;;;;14.57;6.00;;;;;;;;;;6124664;23;20018;-86
2022/04/06 04:38:25;;;;;;;10.43;5.45;;;;;;;;;;6100461;23;20343;-88
2022/04/06 04:40:51;;;;;;;11.18;5.43;;;;;;;;;;6124126;23;20029;-85
2022/04/06 04:43:17;;;;;;;15.02;4.90;;;;;;;;;;6099982;23;20049;-84
2022/04/06 04:45:43;;;;;;;31.08;6.40;;;;;;;;;;6124764;23;20040;-84
2022/04/06 04:48:10;;;;;;;13.77;5.60;;;;;;;;;;6099694;23;20479;-88
2022/04/06 04:50:36;;;;;;;9.98;5.57;;;;;;;;;;6099758;23;20018;-87
2022/04/06 04:53:02;;;;;;;9.10;4.47;;;;;;;;;;6102193;23;20465;-85
2022/04/06 04:55:28;;;;;;;13.20;6.00;;;;;;;;;;6129719;23;20017;-85
2022/04/06 04:57:54;;;;;;;14.60;5.78;;;;;;;;;;6105544;23;20450;-88
2022/04/06 05:00:20;;;;;;;8.02;4.00;;;;;;;;;;6106047;23;20346;-87
2022/04/06 05:02:46;;;;;;;17.00;5.30;;;;;;;;;;6129892;23;20446;-88
2022/04/06 05:05:12;;;;;;;14.20;5.90;;;;;;;;;;6128695;23;20466;-85
2022/04/06 05:07:38;;;;;;;10.63;4.95;;;;;;;;;;6129119;23;20014;-87
2022/04/06 05:10:06;;;;;;;11.73;4.55;;;;;;;;;;6105579;23;20458;-87
2022/04/06 05:12:32;;;;;;;16.48;5.80;;;;;;;;;;6105415;23;20463;-88
2022/04/06 05:15:04;;;;;;;10.57;4.88;;;;;;;;;;6105666;23;20071;-90
2022/04/06 05:17:31;;;;;;;12.57;4.18;;;;;;;;;;6106295;23;20013;-89
2022/04/06 05:20:00;;;;;;;15.15;4.93;;;;;;;;;;6105114;23;20068;-85
2022/04/06 05:22:26;;;;;;;17.25;5.63;;;;;;;;;;6104795;23;20024;-88
2022/04/06 05:24:53;;;;;;;18.70;5.43;;;;;;;;;;6106455;23;20026;-88
2022/04/06 05:27:22;;;;;;;23.92;5.57;;;;;;;;;;6129900;23;20320;-88
2022/04/06 05:29:48;;;;;;;9.05;4.13;;;;;;;;;;6106713;23;20053;-88
2022/04/06 05:32:14;;;;;;;10.65;5.22;;;;;;;;;;6109363;23;20017;-88
2022/04/06 05:34:43;;;;;;;18.30;5.10;;;;;;;;;;6108514;23;20087;-84
2022/04/06 05:37:09;;;;;;;15.85;5.30;;;;;;;;;;6108842;23;20454;-88
2022/04/06 05:39:36;;;;;;;11.98;4.75;;;;;;;;;;6109427;23;20144;-85
2022/04/06 05:42:02;;;;;;;20.17;5.82;;;;;;;;;;6133341;23;20020;-87
2022/04/06 05:44:28;;;;;;;14.15;5.25;;;;;;;;;;6108779;23;20018;-88
2022/04/06 05:47:01;;;;;;;18.35;5.50;;;;;;;;;;6108823;23;20044;-88
2022/04/06 05:49:28;;;;;;;11.82;4.70;;;;;;;;;;6133225;23;20013;-87
2022/04/06 05:51:56;;;;;;;19.48;5.22;;;;;;;;;;6109411;23;20096;-87
2022/04/06 05:54:22;;;;;;;11.85;5.18;;;;;;;;;;6103535;23;20097;-88
2022/04/06 05:56:49;;;;;;;16.40;5.10;;;;;;;;;;6127963;23;20473;-88
2022/04/06 05:59:15;;;;;;;11.27;5.38;;;;;;;;;;6103304;23;20084;-88
2022/04/06 06:01:41;;;;;;;23.17;7.15;;;;;;;;;;6103077;23;20072;-86
2022/04/06 06:04:07;;;;;;;21.92;8.13;;;;;;;;;;6128910;23;20466;-88
2022/04/06 06:06:33;;;;;;;11.75;5.53;;;;;;;;;;6104051;23;20045;-85
2022/04/06 06:08:59;;;;;;;13.40;5.50;;;;;;;;;;6127874;23;20110;-85
2022/04/06 06:11:25;;;;;;;11.48;5.43;;;;;;;;;;6127502;23;20022;-85
2022/04/06 06:13:51;;;;;;;13.13;4.28;;;;;;;;;;6102538;23;20068;-87
2022/04/06 06:16:17;;;;;;;13.13;6.47;;;;;;;;;;6102918;23;20363;-87
2022/04/06 06:18:43;;;;;;;11.43;4.85;;;;;;;;;;6103214;23;20025;-88
2022/04/06 06:21:09;;;;;;;17.58;4.45;;;;;;;;;;6103550;23;20633;-88
2022/04/06 06:23:35;;;;;;;12.25;4.65;;;;;;;;;;6103122;23;20041;-89
2022/04/06 06:26:01;;;;;;;11.30;5.18;;;;;;;;;;6103245;23;20017;-86
2022/04/06 06:28:27;;;;;;;16.35;5.32;;;;;;;;;;6126990;23;20093;-84
2022/04/06 06:30:53;;;;;;;13.07;4.70;;;;;;;;;;6094641;23;20021;-87
2022/04/06 06:33:20;;;;;;;11.05;4.65;;;;;;;;;;6126065;23;20410;-86
2022/04/06 06:35:46;;;;;;;11.85;4.53;;;;;;;;;;6127615;23;20018;-88
2022/04/06 06:38:12;;;;;;;10.93;4.80;;;;;;;;;;6103655;23;20435;-87
2022/04/06 06:40:38;;;;;;;13.88;5.38;;;;;;;;;;6107130;23;20059;-92
2022/04/06 06:43:05;;;;;;;12.00;5.05;;;;;;;;;;6128316;23;20024;-86
2022/04/06 06:45:31;;;;;;;18.83;5.45;;;;;;;;;;6102977;23;20023;-95
2022/04/06 06:47:57;;;;;;;17.10;4.85;;;;;;;;;;6105682;23;20024;-92
2022/04/06 06:50:24;;;;;;;11.80;4.15;;;;;;;;;;6128704;23;20037;-91
2022/04/06 06:52:50;;;;;;;19.52;4.55;;;;;;;;;;6127244;23;20342;-93
2022/04/06 06:55:18;;;;;;;12.30;4.00;;;;;;;;;;6131272;23;20025;-91
2022/04/06 06:57:45;;;;;;;13.60;6.07;;;;;;;;;;6106348;23;20018;-88
2022/04/06 07:00:11;;;;;;;16.13;5.32;;;;;;;;;;6106504;23;20021;-89
2022/04/06 07:02:39;;;;;;;9.80;4.70;;;;;;;;;;6130737;23;20064;-88
2022/04/06 07:05:05;;;;;;;13.73;4.95;;;;;;;;;;6108749;23;20095;-89
2022/04/06 07:07:31;;;;;;;10.40;4.05;;;;;;;;;;6132557;23;20383;-95
2022/04/06 07:09:57;;;;;;;10.43;4.82;;;;;;;;;;6108129;23;20022;-89
2022/04/06 07:12:23;;;;;;;6.40;3.92;;;;;;;;;;6131986;23;20025;-86
2022/04/06 07:14:49;;;;;;;15.50;5.78;;;;;;;;;;6157309;23;20022;-91
2022/04/06 07:17:17;;;;;;;11.18;4.03;;;;;;;;;;6157078;23;20028;-87
2022/04/06 07:19:45;;;;;;;14.52;4.43;;;;;;;;;;6106581;23;20043;-90
2022/04/06 07:22:11;;;;;;;13.65;4.57;;;;;;;;;;6107616;23;20030;-92
2022/04/06 07:24:37;;;;;;;15.27;5.40;;;;;;;;;;6157908;23;20017;-87
2022/04/06 07:27:03;;;;;;;11.55;4.03;;;;;;;;;;6157612;23;20118;-92
2022/04/06 07:29:29;;;;;;;12.38;5.50;;;;;;;;;;6105285;23;20362;-86
2022/04/06 07:31:55;;;;;;;8.85;3.63;;;;;;;;;;6129731;23;20029;-86
2022/04/06 07:34:21;;;;;;;9.60;3.70;;;;;;;;;;6105567;23;20021;-89
2022/04/06 07:36:50;;;;;;;15.50;4.50;;;;;;;;;;6107095;23;20065;-91
2022/04/06 07:39:16;;;;;;;9.48;4.18;;;;;;;;;;6132640;23;20029;-92
2022/04/06 07:41:42;;;;;;;11.07;4.13;;;;;;;;;;6111073;23;20018;-88
2022/04/06 07:44:08;;;;;;;16.90;3.72;;;;;;;;;;6132354;23;20048;-87
2022/04/06 07:46:50;;;;;;;;;;;;;;;;;;;;;
2022/04/06 07:49:35;;;;;;;7.60;4.25;;;;;;;;;;6095666;23;20461;-88
2022/04/06 07:52:01;;;;;;;19.63;3.75;;;;;;;;;;6109451;23;20018;-91
2022/04/06 07:54:27;;;;;;;14.20;4.45;;;;;;;;;;6132815;23;20030;-90
2022/04/06 07:56:53;;;;;;;18.77;4.97;;;;;;;;;;6132299;23;20025;-88
2022/04/06 07:59:19;;;;;;;16.45;5.03;;;;;;;;;;6130809;23;20036;-87
2022/04/06 08:01:46;;;;;;;12.77;4.25;;;;;;;;;;6130920;23;20020;-93
2022/04/06 08:04:12;;;;;;;8.68;3.63;;;;;;;;;;6106450;23;20029;-88
2022/04/06 08:06:38;;;;;;;10.20;3.78;;;;;;;;;;6130788;23;20013;-92
2022/04/06 08:09:06;;;;;;;8.32;3.20;;;;;;;;;;6107319;23;20025;-87
2022/04/06 08:11:32;;;;;;;10.05;4.10;;;;;;;;;;6109064;23;20022;-93
2022/04/06 08:13:59;;;;;;;6.88;3.03;;;;;;;;;;6132157;23;20068;-89
2022/04/06 08:16:28;;;;;;;12.82;3.78;;;;;;;;;;6133380;23;20096;-94
2022/04/06 08:18:54;;;;;;;13.60;4.57;;;;;;;;;;6159453;23;20084;-93
2022/04/06 08:21:20;;;;;;;9.55;4.78;;;;;;;;;;6159366;23;20017;-92
2022/04/06 08:23:47;;;;;;;15.98;3.88;;;;;;;;;;6159847;23;20045;-87
2022/04/06 08:26:13;;;;;;;11.32;4.63;;;;;;;;;;6139063;23;20022;-96
2022/04/06 08:28:40;;;;;;;15.38;4.60;;;;;;;;;;6137645;23;20603;-90
2022/04/06 08:31:06;;;;;;;12.95;3.85;;;;;;;;;;6108493;23;20104;-91
2022/04/06 08:33:36;;;;;;;8.30;3.85;;;;;;;;;;6132356;23;20028;-91
2022/04/06 08:36:06;;;;;;;16.63;5.18;;;;;;;;;;6107666;23;20047;-91
2022/04/06 08:39:51;;;;;;;15.88;4.90;;;;;;;;;;6107710;23;20025;-91
2022/04/06 08:41:46;;;;;;;7.15;2.97;;;;;;;;;;6113513;23;20025;-93
2022/04/06 08:44:13;;;;;;;9.52;3.58;;;;;;;;;;6133767;23;20053;-90
2022/04/06 08:46:41;;;;;;;15.93;4.13;;;;;;;;;;6134812;23;20045;-93
2022/04/06 08:49:07;;;;;;;19.17;4.65;;;;;;;;;;6133325;23;20053;-95
2022/04/06 08:51:34;;;;;;;12.77;3.92;;;;;;;;;;6132621;23;20013;-94
2022/04/06 08:54:00;;;;;;;8.32;3.53;;;;;;;;;;6130428;23;20025;-90
2022/04/06 08:56:26;;;;;;;9.90;4.00;;;;;;;;;;6158419;23;20018;-93
2022/04/06 08:59:04;;;;;;;12.73;4.70;;;;;;;;;;6168422;23;20053;-91
2022/04/06 09:01:33;;;;;;;11.10;3.95;;;;;;;;;;6131165;23;20522;-95
2022/04/06 09:04:02;;;;;;;12.68;3.63;;;;;;;;;;6112627;23;20018;-92
2022/04/06 09:06:32;;;;;;;11.82;4.45;;;;;;;;;;6108877;23;20017;-93
2022/04/06 09:08:58;;;;;;;18.08;4.00;;;;;;;;;;6132944;23;20451;-90
2022/04/06 09:11:26;;;;;;;7.00;3.25;;;;;;;;;;6130484;23;20088;-90
2022/04/06 09:14:02;;;;;;;12.40;3.75;;;;;;;;;;6106627;23;20017;-90
2022/04/06 09:16:29;;;;;;;9.50;3.22;;;;;;;;;;6108489;23;20117;-88
2022/04/06 09:18:55;;;;;;;11.50;5.18;;;;;;;;;;6106575;23;20018;-87
2022/04/06 09:21:21;;;;;;;8.45;4.35;;;;;;;;;;6155687;23;20446;-90
2022/04/06 09:23:48;;;;;;;13.52;4.78;;;;;;;;;;6129966;23;20014;-88
2022/04/06 09:26:17;;;;;;;12.18;4.88;;;;;;;;;;6129892;23;20077;-88
2022/04/06 09:28:45;;;;;;;5.85;3.00;;;;;;;;;;6130235;23;20013;-89
2022/04/06 09:31:15;;;;;;;8.20;4.47;;;;;;;;;;6130435;23;20489;-90
2022/04/06 09:40:30;;;;;;;7.30;3.35;;;;;;;;;;6069144;23;20071;-96
2022/04/06 09:42:59;;;;;;;10.32;4.65;;;;;;;;;;6020024;23;20147;-88
2022/04/06 09:51:35;;;;;;;25.50;3.60;;;;;;;;;;5927490;23;20029;-88
2022/04/06 09:54:05;;;;;;;8.90;3.83;;;;;;;;;;5929015;24;20024;-91
2022/04/06 09:56:32;;;;;;;9.55;3.95;;;;;;;;;;5907715;24;20021;-89
2022/04/06 09:58:59;;;;;;;13.23;4.32;;;;;;;;;;5907691;24;20541;-89
2022/04/06 10:01:26;;;;;;;9.73;4.10;;;;;;;;;;5930387;24;20017;-91
2022/04/06 10:03:57;;;;;;;14.05;4.50;;;;;;;;;;5929122;24;20021;-91
2022/04/06 10:06:23;;;;;;;17.55;4.90;;;;;;;;;;5930825;24;20036;-92
2022/04/06 10:08:50;;;;;;;14.88;5.32;;;;;;;;;;5929761;24;20040;-91
2022/04/06 10:11:18;;;;;;;16.38;5.00;;;;;;;;;;5930624;24;20021;-86
2022/04/06 10:13:44;;;;;;;15.07;3.92;;;;;;;;;;5935011;23;20354;-91
2022/04/06 10:16:12;;;;;;;16.80;4.75;;;;;;;;;;5989406;23;20027;-92
2022/04/06 10:18:38;;;;;;;13.52;5.07;;;;;;;;;;6028441;23;20022;-90
2022/04/06 10:27:52;;;;;;;19.85;4.10;;;;;;;;;;6151443;23;20077;-86
2022/04/06 10:30:40;;;;;;;14.43;5.55;;;;;;;;;;6135077;23;20013;-95
2022/04/06 10:33:20;;;;;;;14.48;4.68;;;;;;;;;;6133592;23;20092;-92
2022/04/06 10:36:03;;;;;;;10.43;4.85;;;;;;;;;;6105702;23;20028;-92
2022/04/06 10:42:16;;;;;;;14.68;5.28;;;;;;;;;;6042775;23;20054;-90
2022/04/06 10:45:00;;;;;;;10.02;5.55;;;;;;;;;;5927733;24;20393;-92
2022/04/06 10:50:10;;;;;;;14.52;5.20;;;;;;;;;;6172767;23;20408;-90
2022/04/06 10:55:28;;;;;;;13.45;4.47;;;;;;;;;;6163359;23;20022;-93
2022/04/06 10:58:04;;;;;;;18.25;5.05;;;;;;;;;;6138181;23;20022;-91
2022/04/06 11:00:34;;;;;;;13.80;4.80;;;;;;;;;;6136517;23;20025;-93
2022/04/06 11:03:22;;;;;;;13.07;6.13;;;;;;;;;;6143036;23;20021;-91
2022/04/06 11:05:52;;;;;;;17.25;4.82;;;;;;;;;;6111744;23;20017;-90
2022/04/06 11:11:48;;;;;;;13.13;4.70;;;;;;;;;;6136724;23;20022;-93
2022/04/06 11:14:30;;;;;;;19.20;4.75;;;;;;;;;;6135443;23;20041;-89
2022/04/06 11:17:53;;;;;;;14.93;4.45;;;9.80;99.90;;;;;;6126953;23;20026;-90
2022/04/06 11:20:18;;;;;;;18.88;4.70;;;;;;;;;;6119291;23;20026;-91
2022/04/06 11:22:49;;;;;;;15.02;5.50;;;;;;;;;;6101423;23;20317;-90
2022/04/06 11:25:31;;;;;;;15.52;4.97;;;;;;;;;;6102234;23;20018;-96
2022/04/06 11:28:18;;;;;;;13.65;4.45;;;;;;;;;;6124949;23;20032;-88
2022/04/06 11:30:44;;;;;;;8.95;4.70;;;;;;;;;;6125317;23;20018;-87
2022/04/06 11:33:10;;;;;;;10.10;3.92;;;;;;;;;;6127604;23;20467;-87
2022/04/06 11:35:45;;;;;;;19.92;4.68;;;;;;;;;;6126478;23;20088;-92
2022/04/06 11:41:45;;;;;;;13.95;4.07;;;;;;;;;;6128011;23;20017;-92
2022/04/06 11:54:21;;;;;;;;;;;;;;;;;;;;;
2022/04/06 11:57:03;;;;;;;9.07;3.42;;;;;;;;;;5958495;24;20046;-92
2022/04/06 12:03:08;;;;;;;;;;;;;;;;;;;;;
2022/04/06 12:05:54;;;;;;;14.10;3.75;;;;;;;;;;5875619;24;20025;-88
2022/04/06 12:15:18;;;;;;;7.95;3.13;;;;;;;;;;5958465;24;20035;-92
2022/04/06 12:21:04;;;;;;;11.25;3.50;;;;;;;;;;6151496;23;20085;-88
2022/04/06 12:27:07;;;;;;;9.23;3.55;;;;;;;;;;5960315;24;20065;-89
2022/04/06 12:33:14;;;;;;;12.55;3.60;;;;;;;;;;5845060;24;20068;-90
2022/04/06 12:35:40;;;;;;;9.32;2.80;;;;;;;;;;5823229;24;20082;-90
2022/04/06 12:38:26;;;;;;;;;;;;;;;;;;;;;
2022/04/06 12:41:06;;;;;;;15.63;3.85;;;;;;;;;;5821429;24;20488;-91
2022/04/06 12:43:32;;;;;;;10.02;3.70;;;;;;;;;;5799687;24;20504;-89
2022/04/06 12:45:58;;;;;;;9.15;2.63;;;;;;;;;;5799825;24;20032;-87
2022/04/06 12:48:24;;;;;;;9.93;3.17;;;;;;;;;;5798831;24;20026;-87
2022/04/06 12:50:50;;;;;;;9.32;3.17;;;;;;;;;;5801138;24;20405;-91
2022/04/06 12:53:20;;;;;;;10.00;3.05;;;;;;;;;;5821686;24;20054;-88
2022/04/06 12:55:46;;;;;;;9.00;3.00;;;;;;;;;;5844815;24;20130;-87
2022/04/06 12:58:16;;;;;;;8.90;3.15;;;;;;;;;;5801136;24;20060;-91
2022/04/06 13:00:42;;;;;;;11.05;3.20;;;;;;;;;;5822499;24;20030;-89
2022/04/06 13:03:17;;;;;;;9.77;3.28;;;;;;;;;;5877254;24;20065;-89
2022/04/06 13:05:44;;;;;;;8.25;2.75;;;;;;;;;;5954764;24;20025;-86
2022/04/06 13:08:10;;;;;;;7.18;3.75;;;;;;;;;;6045116;23;20399;-91
2022/04/06 13:10:38;;;;;;;11.68;4.28;;;;;;;;;;6114041;23;20036;-86
2022/04/06 13:13:05;;;;;;;8.57;2.65;;;;;;;;;;6135868;23;20052;-88
2022/04/06 13:15:36;;;;;;;14.80;3.58;;;;;;;;;;6135505;23;20021;-87
2022/04/06 13:18:02;;;;;;;15.07;4.28;;;;;;;;;;6158736;23;20413;-88
2022/04/06 13:20:28;;;;;;;13.10;3.67;;;;;;;;;;6185921;23;20020;-90
2022/04/06 13:22:55;;;;;;;9.10;3.38;;;;;;;;;;6186962;23;20017;-89
2022/04/06 13:25:21;;;;;;;10.48;3.15;;;;;;;;;;6158720;23;20025;-86
2022/04/06 13:27:47;;;;;;;11.02;3.40;;;;;;;;;;6157875;23;20027;-88
2022/04/06 13:30:16;;;;;;;15.35;3.47;;;;;;;;;;6133736;23;20100;-92
2022/04/06 13:32:43;;;;;;;10.05;3.72;;;;;;;;;;6159587;23;20021;-91
2022/04/06 13:35:09;;;;;;;12.27;3.53;;;;;;;;;;6135515;23;20080;-88
2022/04/06 13:37:36;;;;;;;10.57;3.03;;;;;;;;;;6158907;23;20021;-88
2022/04/06 13:40:03;;;;;;;9.23;3.45;;;;;;;;;;6135786;23;20823;-90
2022/04/06 13:42:30;;;;;;;9.32;3.53;;;;;;;;;;6159861;23;20028;-90
2022/04/06 13:44:59;;;;;;;10.50;2.83;;;;;;;;;;6185275;23;20347;-87
2022/04/06 13:47:25;;;;;;;4.35;2.38;;;;;;;;;;6159227;23;20028;-87
2022/04/06 13:49:52;;;;;;;13.52;3.67;;;;;;;;;;6133446;23;20071;-90
2022/04/06 13:52:18;;;;;;;8.18;2.55;;;;;;;;;;6162270;23;20021;-87
2022/04/06 13:54:44;;;;;;;5.93;3.03;;;;;;;;;;6160881;23;20013;-87
2022/04/06 13:57:10;;;;;;;8.25;3.30;;;;;;;;;;6159415;23;20024;-90
2022/04/06 13:59:37;;;;;;;4.55;2.67;;;;;;;;;;6159896;23;20068;-86
2022/04/06 14:02:04;;;;;;;7.45;2.67;;;;;;;;;;6134095;23;20021;-87
2022/04/06 14:04:33;;;;;;;12.02;3.92;;;;;;;;;;6183675;23;20493;-88
2022/04/06 14:07:03;;;;;;;9.55;3.40;;;;;;;;;;6163506;23;20024;-85
2022/04/06 14:09:29;;;;;;;9.40;2.92;;;;;;;;;;6188749;23;20033;-91
2022/04/06 14:11:57;;;;;;;12.20;2.60;;;;;;;;;;6164625;23;20028;-84
2022/04/06 14:14:23;;;;;;;6.60;2.38;;;;;;;;;;6162643;23;20013;-87
2022/04/06 14:16:53;;;;;;;9.90;2.67;;;;;;;;;;6140692;23;20021;-91
2022/04/06 14:19:19;;;;;;;8.80;2.83;;;;;;;;;;6140141;23;20048;-95
2022/04/06 14:21:46;;;;;;;3.95;2.40;;;;;;;;;;6143992;23;20017;-87
2022/04/06 14:24:12;;;;;;;5.80;2.70;;;;;;;;;;6145115;23;20019;-87
2022/04/06 14:26:45;;;;;;;8.38;2.33;;;;;;;;;;6175009;23;20027;-86
2022/04/06 14:29:12;;;;;;;6.63;2.13;;;;;;;;;;6150399;23;20067;-92
2022/04/06 14:31:41;;;;;;;3.50;2.05;;;;;;;;;;6152585;23;20047;-85
2022/04/06 14:34:10;;;;;;;5.97;2.58;;;;;;;;;;6175644;23;20025;-86
2022/04/06 14:36:42;;;;;;;4.75;2.60;;;;;;;;;;6174341;23;20032;-87
2022/04/06 14:39:10;;;;;;;7.40;3.35;;;;;;;;;;6148229;23;20085;-88
2022/04/06 14:41:37;;;;;;;3.03;1.88;;;;;;;;;;6150968;23;20040;-86
2022/04/06 14:44:03;;;;;;;11.50;2.60;;;;;;;;;;6142388;23;20044;-91
2022/04/06 14:46:30;;;;;;;7.53;3.28;;;;;;;;;;6141100;23;20102;-87
2022/04/06 14:49:06;;;;;;;3.20;2.30;;;;;;;;;;6140485;23;20391;-90
2022/04/06 14:51:33;;;;;;;6.25;3.00;;;;;;;;;;6171817;23;20032;-93
2022/04/06 14:53:59;;;;;;;4.65;2.10;;;;;;;;;;6144900;23;20017;-93
2022/04/06 14:56:26;;;;;;;5.05;2.13;;;;;;;;;;6196141;23;20062;-87
2022/04/06 14:58:52;;;;;;;4.15;2.53;;;;;;;;;;6142793;23;20020;-87
2022/04/06 15:01:18;;;;;;;2.15;1.52;;;;;;;;;;6161000;23;20049;-88
2022/04/06 15:03:45;;;;;;;6.28;1.55;;;;;;;;;;6136690;23;20092;-87
2022/04/06 15:06:11;;;;;;;2.78;1.80;;;;;;;;;;6136459;23;20044;-86
2022/04/06 15:08:37;;;;;;;4.93;2.70;;;;;;;;;;6156082;23;20021;-87
2022/04/06 15:11:03;;;;;;;2.15;1.90;;;;;;;;;;6161696;23;20026;-86
2022/04/06 15:13:29;;;;;;;3.60;2.33;;;;;;;;;;6189607;23;20019;-87
2022/04/06 15:15:55;;;;;;;3.50;2.45;;;;;;;;;;6189591;23;20047;-92
2022/04/06 15:18:21;;;;;;;5.63;2.95;;;;;;;;;;6141547;23;20017;-91
2022/04/06 15:20:49;;;;;;;5.65;3.45;;;;;;;;;;6163402;23;20021;-85
2022/04/06 15:23:15;;;;;;;7.50;3.58;;;;;;;;;;6190763;23;20155;-94
2022/04/06 15:25:45;;;;;;;15.63;3.90;;;;;;;;;;6141105;23;20028;-92
2022/04/06 15:28:11;;;;;;;9.30;4.85;;;;;;;;;;6141739;23;20091;-93
2022/04/06 15:30:38;;;;;;;6.30;4.40;;;;;;;;;;6164620;23;20021;-92
2022/04/06 15:33:04;;;;;;;7.50;4.60;;;;;;;;;;6161948;23;20069;-86
2022/04/06 15:38:14;;;;;;;12.85;5.03;;;;;;;;;;6186647;23;20021;-85
2022/04/06 15:40:40;;;;;;;12.40;4.50;;;;;;;;;;6161137;23;20075;-86
2022/04/06 15:43:07;;;;;;;14.93;6.57;;;;;;;;;;6160624;23;20031;-86
2022/04/06 15:45:35;;;;;;;22.20;5.78;;;;;;;;;;6161075;23;20017;-87
2022/04/06 15:48:02;;;;;;;15.00;4.45;;;;;;;;;;6161168;23;20017;-87
2022/04/06 15:50:38;;;;;;;;;;;;;;;;;;;;;
2022/04/06 15:53:05;;;;;;;16.45;5.22;;;;;;;;;;6185981;23;20020;-86
2022/04/06 15:55:32;;;;;;;6.55;4.55;;;;;;;;;;6161176;23;20024;-87
2022/04/06 15:57:59;;;;;;;11.52;5.15;;;;;;;;;;6136469;23;20080;-88
2022/04/06 16:00:26;;;;;;;11.38;5.30;;;;;;;;;;6132846;23;20017;-87